sensor_id;sensor_type;location;lat;lon;timestamp;pressure;altitude;pressure_sealevel;temperature;humidity
77351;BME280;66420;50.246;14.320;2023-05-02T00:00:35;99400.16;;;12.68;70.42
77351;BME280;66420;50.246;14.320;2023-05-02T00:03:20;99405.34;;;12.69;69.81
77351;BME280;66420;50.246;14.320;2023-05-02T00:06:04;99396.13;;;12.65;69.38
77351;BME280;66420;50.246;14.320;2023-05-02T00:08:49;99406.97;;;12.62;70.61
77351;BME280;66420;50.246;14.320;2023-05-02T00:11:34;99398.25;;;12.60;70.00
77351;BME280;66420;50.246;14.320;2023-05-02T00:14:19;99398.88;;;12.57;70.21
77351;BME280;66420;50.246;14.320;2023-05-02T00:17:03;99394.88;;;12.54;70.13
77351;BME280;66420;50.246;14.320;2023-05-02T00:19:48;99401.16;;;12.55;70.05
77351;BME280;66420;50.246;14.320;2023-05-02T00:22:34;99400.34;;;12.54;70.05
77351;BME280;66420;50.246;14.320;2023-05-02T00:25:19;99412.31;;;12.50;69.95
77351;BME280;66420;50.246;14.320;2023-05-02T00:28:04;99407.13;;;12.48;69.98
77351;BME280;66420;50.246;14.320;2023-05-02T00:30:48;99418.94;;;12.49;70.23
77351;BME280;66420;50.246;14.320;2023-05-02T00:33:33;99414.72;;;12.42;69.71
77351;BME280;66420;50.246;14.320;2023-05-02T00:36:18;99413.13;;;12.41;69.61
77351;BME280;66420;50.246;14.320;2023-05-02T00:39:04;99409.41;;;12.37;70.32
77351;BME280;66420;50.246;14.320;2023-05-02T00:41:55;99409.59;;;12.32;70.96
77351;BME280;66420;50.246;14.320;2023-05-02T00:44:40;99411.34;;;12.28;70.62
77351;BME280;66420;50.246;14.320;2023-05-02T00:47:25;99413.63;;;12.18;71.24
77351;BME280;66420;50.246;14.320;2023-05-02T00:50:10;99412.47;;;12.10;71.46
77351;BME280;66420;50.246;14.320;2023-05-02T00:52:55;99415.69;;;11.95;71.58
77351;BME280;66420;50.246;14.320;2023-05-02T00:55:40;99421.66;;;11.88;72.11
77351;BME280;66420;50.246;14.320;2023-05-02T00:58:25;99423.88;;;11.78;71.97
77351;BME280;66420;50.246;14.320;2023-05-02T01:01:49;99418.34;;;11.69;72.50
77351;BME280;66420;50.246;14.320;2023-05-02T01:08:07;99429.47;;;11.64;72.29
77351;BME280;66420;50.246;14.320;2023-05-02T01:14:11;99427.19;;;11.57;72.25
77351;BME280;66420;50.246;14.320;2023-05-02T01:17:04;99429.94;;;11.49;72.78
77351;BME280;66420;50.246;14.320;2023-05-02T01:19:54;99434.72;;;11.43;72.76
77351;BME280;66420;50.246;14.320;2023-05-02T01:22:40;99431.66;;;11.36;73.57
77351;BME280;66420;50.246;14.320;2023-05-02T01:26:33;99438.88;;;11.32;73.54
77351;BME280;66420;50.246;14.320;2023-05-02T01:31:47;99442.53;;;11.19;74.06
77351;BME280;66420;50.246;14.320;2023-05-02T01:34:35;99440.94;;;11.18;74.35
77351;BME280;66420;50.246;14.320;2023-05-02T01:37:23;99445.22;;;11.10;74.45
77351;BME280;66420;50.246;14.320;2023-05-02T01:40:08;99445.06;;;11.07;74.65
77351;BME280;66420;50.246;14.320;2023-05-02T01:42:56;99459.50;;;10.99;75.45
77351;BME280;66420;50.246;14.320;2023-05-02T01:45:43;99462.97;;;10.91;75.92
77351;BME280;66420;50.246;14.320;2023-05-02T01:48:29;99472.34;;;10.90;75.59
77351;BME280;66420;50.246;14.320;2023-05-02T01:51:14;99468.91;;;10.84;75.67
77351;BME280;66420;50.246;14.320;2023-05-02T01:54:07;99469.56;;;10.81;75.83
77351;BME280;66420;50.246;14.320;2023-05-02T01:56:52;99470.34;;;10.82;76.22
77351;BME280;66420;50.246;14.320;2023-05-02T01:59:39;99469.16;;;10.74;76.17
77351;BME280;66420;50.246;14.320;2023-05-02T02:02:25;99466.25;;;10.71;76.54
77351;BME280;66420;50.246;14.320;2023-05-02T02:05:11;99472.84;;;10.70;76.69
77351;BME280;66420;50.246;14.320;2023-05-02T02:07:56;99475.09;;;10.68;76.61
77351;BME280;66420;50.246;14.320;2023-05-02T02:10:44;99477.97;;;10.62;76.67
77351;BME280;66420;50.246;14.320;2023-05-02T02:13:34;99472.09;;;10.55;77.18
77351;BME280;66420;50.246;14.320;2023-05-02T02:16:24;99473.84;;;10.51;77.96
77351;BME280;66420;50.246;14.320;2023-05-02T02:19:13;99462.41;;;10.49;77.51
77351;BME280;66420;50.246;14.320;2023-05-02T02:21:59;99478.00;;;10.49;77.37
77351;BME280;66420;50.246;14.320;2023-05-02T02:24:44;99477.81;;;10.45;77.72
77351;BME280;66420;50.246;14.320;2023-05-02T02:27:30;99481.69;;;10.44;78.12
77351;BME280;66420;50.246;14.320;2023-05-02T02:30:15;99481.97;;;10.43;78.29
77351;BME280;66420;50.246;14.320;2023-05-02T02:33:00;99490.47;;;10.41;78.34
77351;BME280;66420;50.246;14.320;2023-05-02T02:35:56;99490.28;;;10.38;79.01
77351;BME280;66420;50.246;14.320;2023-05-02T02:38:47;99489.50;;;10.37;78.85
77351;BME280;66420;50.246;14.320;2023-05-02T02:42:01;99486.56;;;10.34;78.81
77351;BME280;66420;50.246;14.320;2023-05-02T02:44:55;99499.53;;;10.28;79.46
77351;BME280;66420;50.246;14.320;2023-05-02T02:47:53;99502.56;;;10.27;79.10
77351;BME280;66420;50.246;14.320;2023-05-02T02:56:40;99512.91;;;10.30;79.49
77351;BME280;66420;50.246;14.320;2023-05-02T02:59:32;99522.44;;;10.32;79.44
77351;BME280;66420;50.246;14.320;2023-05-02T03:02:18;99525.97;;;10.33;78.81
77351;BME280;66420;50.246;14.320;2023-05-02T03:05:08;99525.88;;;10.38;79.43
77351;BME280;66420;50.246;14.320;2023-05-02T03:07:54;99522.94;;;10.34;78.58
77351;BME280;66420;50.246;14.320;2023-05-02T03:10:39;99522.81;;;10.39;79.36
77351;BME280;66420;50.246;14.320;2023-05-02T03:13:25;99525.22;;;10.41;78.66
77351;BME280;66420;50.246;14.320;2023-05-02T03:18:58;99534.16;;;10.46;79.07
77351;BME280;66420;50.246;14.320;2023-05-02T03:21:42;99534.16;;;10.46;78.58
77351;BME280;66420;50.246;14.320;2023-05-02T03:24:28;99535.78;;;10.47;78.45
77351;BME280;66420;50.246;14.320;2023-05-02T03:27:13;99533.53;;;10.49;78.77
77351;BME280;66420;50.246;14.320;2023-05-02T03:29:58;99534.53;;;10.53;78.56
77351;BME280;66420;50.246;14.320;2023-05-02T03:32:43;99539.38;;;10.56;79.07
77351;BME280;66420;50.246;14.320;2023-05-02T03:35:28;99545.75;;;10.65;77.94
77351;BME280;66420;50.246;14.320;2023-05-02T03:38:13;99542.38;;;10.68;77.86
77351;BME280;66420;50.246;14.320;2023-05-02T03:40:57;99548.19;;;10.67;78.72
77351;BME280;66420;50.246;14.320;2023-05-02T03:43:42;99554.66;;;10.71;78.12
77351;BME280;66420;50.246;14.320;2023-05-02T03:46:27;99536.91;;;10.68;77.88
77351;BME280;66420;50.246;14.320;2023-05-02T03:49:12;99544.00;;;10.70;78.13
77351;BME280;66420;50.246;14.320;2023-05-02T03:51:57;99551.28;;;10.74;78.01
77351;BME280;66420;50.246;14.320;2023-05-02T03:54:41;99554.84;;;10.75;77.48
77351;BME280;66420;50.246;14.320;2023-05-02T03:57:30;99564.16;;;10.74;77.86
77351;BME280;66420;50.246;14.320;2023-05-02T04:00:14;99565.78;;;10.75;77.82
77351;BME280;66420;50.246;14.320;2023-05-02T04:03:01;99567.91;;;10.78;77.65
77351;BME280;66420;50.246;14.320;2023-05-02T04:05:46;99573.38;;;10.78;77.90
77351;BME280;66420;50.246;14.320;2023-05-02T04:08:31;99574.81;;;10.75;78.42
77351;BME280;66420;50.246;14.320;2023-05-02T04:11:16;99573.38;;;10.78;77.45
77351;BME280;66420;50.246;14.320;2023-05-02T04:14:01;99579.84;;;10.82;77.63
77351;BME280;66420;50.246;14.320;2023-05-02T04:16:48;99580.47;;;10.79;77.81
77351;BME280;66420;50.246;14.320;2023-05-02T04:19:33;99590.78;;;10.82;77.97
77351;BME280;66420;50.246;14.320;2023-05-02T04:22:18;99583.72;;;10.81;77.69
77351;BME280;66420;50.246;14.320;2023-05-02T04:25:03;99594.69;;;10.81;77.09
77351;BME280;66420;50.246;14.320;2023-05-02T04:27:47;99592.31;;;10.88;76.92
77351;BME280;66420;50.246;14.320;2023-05-02T04:30:32;99599.72;;;10.87;77.26
77351;BME280;66420;50.246;14.320;2023-05-02T04:33:17;99603.25;;;10.88;77.46
77351;BME280;66420;50.246;14.320;2023-05-02T04:36:02;99612.47;;;10.92;77.01
77351;BME280;66420;50.246;14.320;2023-05-02T04:38:47;99607.00;;;10.92;77.01
77351;BME280;66420;50.246;14.320;2023-05-02T04:41:32;99611.88;;;10.95;76.81
77351;BME280;66420;50.246;14.320;2023-05-02T04:44:17;99620.56;;;10.97;76.54
77351;BME280;66420;50.246;14.320;2023-05-02T04:47:02;99611.06;;;10.94;76.39
77351;BME280;66420;50.246;14.320;2023-05-02T04:49:47;99616.72;;;10.98;76.96
77351;BME280;66420;50.246;14.320;2023-05-02T04:52:32;99619.94;;;11.00;76.64
77351;BME280;66420;50.246;14.320;2023-05-02T04:55:17;99611.25;;;10.98;77.25
77351;BME280;66420;50.246;14.320;2023-05-02T04:58:02;99613.47;;;10.96;77.34
77351;BME280;66420;50.246;14.320;2023-05-02T05:00:48;99614.16;;;11.01;76.96
77351;BME280;66420;50.246;14.320;2023-05-02T05:03:32;99614.97;;;11.02;77.35
77351;BME280;66420;50.246;14.320;2023-05-02T05:06:17;99620.50;;;11.10;76.68
77351;BME280;66420;50.246;14.320;2023-05-02T05:09:02;99621.97;;;11.08;76.49
77351;BME280;66420;50.246;14.320;2023-05-02T05:11:47;99620.81;;;11.09;76.19
77351;BME280;66420;50.246;14.320;2023-05-02T05:14:32;99637.13;;;11.14;76.22
77351;BME280;66420;50.246;14.320;2023-05-02T05:17:17;99646.50;;;11.13;76.59
77351;BME280;66420;50.246;14.320;2023-05-02T05:20:03;99644.75;;;11.17;76.96
77351;BME280;66420;50.246;14.320;2023-05-02T05:22:48;99650.53;;;11.16;76.95
77351;BME280;66420;50.246;14.320;2023-05-02T05:25:32;99652.34;;;11.20;77.00
77351;BME280;66420;50.246;14.320;2023-05-02T05:28:17;99658.50;;;11.26;76.91
77351;BME280;66420;50.246;14.320;2023-05-02T05:31:10;99656.75;;;11.30;76.39
77351;BME280;66420;50.246;14.320;2023-05-02T05:33:55;99669.53;;;11.34;76.00
77351;BME280;66420;50.246;14.320;2023-05-02T05:36:40;99670.22;;;11.40;75.11
77351;BME280;66420;50.246;14.320;2023-05-02T05:39:25;99663.81;;;11.44;75.21
77351;BME280;66420;50.246;14.320;2023-05-02T05:42:10;99665.44;;;11.45;75.60
77351;BME280;66420;50.246;14.320;2023-05-02T05:44:56;99673.44;;;11.42;75.52
77351;BME280;66420;50.246;14.320;2023-05-02T05:47:41;99681.25;;;11.48;75.28
77351;BME280;66420;50.246;14.320;2023-05-02T05:50:26;99676.75;;;11.52;75.94
77351;BME280;66420;50.246;14.320;2023-05-02T05:53:11;99675.31;;;11.55;74.81
77351;BME280;66420;50.246;14.320;2023-05-02T05:55:56;99692.78;;;11.59;75.65
77351;BME280;66420;50.246;14.320;2023-05-02T05:58:41;99683.63;;;11.64;75.81
77351;BME280;66420;50.246;14.320;2023-05-02T06:01:27;99690.78;;;11.73;75.83
77351;BME280;66420;50.246;14.320;2023-05-02T06:04:12;99690.78;;;11.73;75.33
77351;BME280;66420;50.246;14.320;2023-05-02T06:06:57;99695.34;;;11.78;74.84
77351;BME280;66420;50.246;14.320;2023-05-02T06:09:42;99698.97;;;11.87;75.89
77351;BME280;66420;50.246;14.320;2023-05-02T06:12:27;99701.53;;;11.92;74.82
77351;BME280;66420;50.246;14.320;2023-05-02T06:15:11;99707.41;;;11.99;73.39
77351;BME280;66420;50.246;14.320;2023-05-02T06:17:56;99703.25;;;12.10;73.25
77351;BME280;66420;50.246;14.320;2023-05-02T06:20:41;99710.88;;;12.13;73.02
77351;BME280;66420;50.246;14.320;2023-05-02T06:23:25;99706.25;;;12.22;71.91
77351;BME280;66420;50.246;14.320;2023-05-02T06:26:11;99712.31;;;12.41;72.30
77351;BME280;66420;50.246;14.320;2023-05-02T06:28:55;99714.41;;;12.44;71.55
77351;BME280;66420;50.246;14.320;2023-05-02T06:31:40;99709.25;;;12.52;72.21
77351;BME280;66420;50.246;14.320;2023-05-02T06:34:25;99716.41;;;12.61;71.72
77351;BME280;66420;50.246;14.320;2023-05-02T06:37:10;99716.09;;;12.63;70.92
77351;BME280;66420;50.246;14.320;2023-05-02T06:39:55;99728.69;;;12.64;71.05
77351;BME280;66420;50.246;14.320;2023-05-02T06:42:40;99727.06;;;12.63;70.10
77351;BME280;66420;50.246;14.320;2023-05-02T06:45:24;99730.59;;;12.55;70.26
77351;BME280;66420;50.246;14.320;2023-05-02T06:48:09;99738.69;;;12.60;70.94
77351;BME280;66420;50.246;14.320;2023-05-02T06:50:54;99742.28;;;12.69;70.95
77351;BME280;66420;50.246;14.320;2023-05-02T06:53:40;99753.28;;;12.69;70.07
77351;BME280;66420;50.246;14.320;2023-05-02T06:56:25;99751.34;;;12.78;70.66
77351;BME280;66420;50.246;14.320;2023-05-02T06:59:10;99757.53;;;12.92;71.77
77351;BME280;66420;50.246;14.320;2023-05-02T07:01:55;99753.19;;;13.00;68.72
77351;BME280;66420;50.246;14.320;2023-05-02T07:04:40;99754.31;;;13.07;68.47
77351;BME280;66420;50.246;14.320;2023-05-02T07:07:24;99759.56;;;13.17;67.47
77351;BME280;66420;50.246;14.320;2023-05-02T07:10:10;99757.78;;;13.30;66.54
77351;BME280;66420;50.246;14.320;2023-05-02T07:12:55;99765.88;;;13.35;67.21
77351;BME280;66420;50.246;14.320;2023-05-02T07:15:40;99766.53;;;13.41;64.77
77351;BME280;66420;50.246;14.320;2023-05-02T07:18:25;99763.47;;;13.42;65.08
77351;BME280;66420;50.246;14.320;2023-05-02T07:21:11;99761.69;;;13.38;64.17
77351;BME280;66420;50.246;14.320;2023-05-02T07:23:55;99762.97;;;13.31;64.33
77351;BME280;66420;50.246;14.320;2023-05-02T07:26:40;99766.69;;;13.27;64.41
77351;BME280;66420;50.246;14.320;2023-05-02T07:29:25;99766.22;;;13.34;65.17
77351;BME280;66420;50.246;14.320;2023-05-02T07:32:10;99778.34;;;13.32;64.57
77351;BME280;66420;50.246;14.320;2023-05-02T07:34:55;99772.19;;;13.44;64.31
77351;BME280;66420;50.246;14.320;2023-05-02T07:37:40;99774.63;;;13.54;63.95
77351;BME280;66420;50.246;14.320;2023-05-02T07:40:25;99771.22;;;13.66;64.93
77351;BME280;66420;50.246;14.320;2023-05-02T07:43:10;99766.38;;;13.80;64.94
77351;BME280;66420;50.246;14.320;2023-05-02T07:45:54;99767.19;;;13.89;64.09
77351;BME280;66420;50.246;14.320;2023-05-02T07:48:40;99770.56;;;13.95;63.74
77351;BME280;66420;50.246;14.320;2023-05-02T07:51:26;99775.91;;;14.00;64.03
77351;BME280;66420;50.246;14.320;2023-05-02T07:54:15;99782.84;;;14.14;64.38
77351;BME280;66420;50.246;14.320;2023-05-02T07:57:00;99789.78;;;14.29;64.57
77351;BME280;66420;50.246;14.320;2023-05-02T07:59:46;99786.03;;;14.51;63.90
77351;BME280;66420;50.246;14.320;2023-05-02T08:02:31;99783.47;;;14.46;62.98
77351;BME280;66420;50.246;14.320;2023-05-02T08:05:16;99785.50;;;14.57;61.91
77351;BME280;66420;50.246;14.320;2023-05-02T08:08:01;99796.69;;;14.61;61.21
77351;BME280;66420;50.246;14.320;2023-05-02T08:10:46;99803.75;;;14.79;61.25
77351;BME280;66420;50.246;14.320;2023-05-02T08:13:31;99807.91;;;14.94;59.94
77351;BME280;66420;50.246;14.320;2023-05-02T08:16:16;99801.00;;;14.79;59.38
77351;BME280;66420;50.246;14.320;2023-05-02T08:19:01;99809.00;;;15.01;59.74
77351;BME280;66420;50.246;14.320;2023-05-02T08:21:46;99814.97;;;15.03;59.80
77351;BME280;66420;50.246;14.320;2023-05-02T08:24:31;99814.09;;;15.20;59.99
77351;BME280;66420;50.246;14.320;2023-05-02T08:27:15;99821.25;;;15.42;59.36
77351;BME280;66420;50.246;14.320;2023-05-02T08:30:00;99819.63;;;15.41;58.13
77351;BME280;66420;50.246;14.320;2023-05-02T08:32:45;99818.31;;;15.47;59.39
77351;BME280;66420;50.246;14.320;2023-05-02T08:35:30;99829.94;;;15.61;58.70
77351;BME280;66420;50.246;14.320;2023-05-02T08:38:16;99830.16;;;15.47;57.94
77351;BME280;66420;50.246;14.320;2023-05-02T08:41:00;99836.13;;;15.58;57.24
77351;BME280;66420;50.246;14.320;2023-05-02T08:43:46;99834.84;;;15.76;57.81
77351;BME280;66420;50.246;14.320;2023-05-02T08:46:34;99839.88;;;15.95;57.49
77351;BME280;66420;50.246;14.320;2023-05-02T08:49:19;99856.31;;;16.12;58.72
77351;BME280;66420;50.246;14.320;2023-05-02T08:52:05;99845.41;;;16.16;56.63
77351;BME280;66420;50.246;14.320;2023-05-02T08:54:51;99855.03;;;16.10;55.92
77351;BME280;66420;50.246;14.320;2023-05-02T08:57:37;99858.47;;;16.07;54.67
77351;BME280;66420;50.246;14.320;2023-05-02T09:00:23;99864.25;;;16.14;54.79
77351;BME280;66420;50.246;14.320;2023-05-02T09:03:32;99861.16;;;16.15;54.52
77351;BME280;66420;50.246;14.320;2023-05-02T09:06:19;99871.91;;;16.29;54.93
77351;BME280;66420;50.246;14.320;2023-05-02T09:09:04;99871.50;;;16.39;55.69
77351;BME280;66420;50.246;14.320;2023-05-02T09:11:49;99862.41;;;16.38;54.72
77351;BME280;66420;50.246;14.320;2023-05-02T09:14:35;99875.06;;;16.60;54.12
77351;BME280;66420;50.246;14.320;2023-05-02T09:17:20;99868.31;;;16.49;54.81
77351;BME280;66420;50.246;14.320;2023-05-02T09:20:06;99878.00;;;16.55;53.49
77351;BME280;66420;50.246;14.320;2023-05-02T09:22:51;99877.06;;;16.51;53.26
77351;BME280;66420;50.246;14.320;2023-05-02T09:25:36;99886.22;;;16.64;55.55
77351;BME280;66420;50.246;14.320;2023-05-02T09:28:37;99879.09;;;16.63;54.01
77351;BME280;66420;50.246;14.320;2023-05-02T09:31:24;99880.66;;;16.97;54.62
77351;BME280;66420;50.246;14.320;2023-05-02T09:34:11;99885.38;;;16.96;55.16
77351;BME280;66420;50.246;14.320;2023-05-02T09:36:56;99887.59;;;16.91;55.14
77351;BME280;66420;50.246;14.320;2023-05-02T09:40:04;99884.72;;;17.11;55.16
77351;BME280;66420;50.246;14.320;2023-05-02T09:42:51;99886.91;;;17.06;53.98
77351;BME280;66420;50.246;14.320;2023-05-02T09:45:36;99886.63;;;16.87;53.69
77351;BME280;66420;50.246;14.320;2023-05-02T09:48:20;99888.50;;;16.95;53.06
77351;BME280;66420;50.246;14.320;2023-05-02T09:51:15;99897.06;;;17.14;55.17
77351;BME280;66420;50.246;14.320;2023-05-02T09:54:01;99891.97;;;17.04;54.42
77351;BME280;66420;50.246;14.320;2023-05-02T09:56:56;99896.13;;;16.98;53.55
77351;BME280;66420;50.246;14.320;2023-05-02T09:59:41;99908.09;;;17.02;53.32
77351;BME280;66420;50.246;14.320;2023-05-02T10:02:29;99906.97;;;17.15;52.80
77351;BME280;66420;50.246;14.320;2023-05-02T10:05:15;99900.72;;;17.06;51.80
77351;BME280;66420;50.246;14.320;2023-05-02T10:08:03;99908.91;;;17.14;52.47
77351;BME280;66420;50.246;14.320;2023-05-02T10:10:56;99902.59;;;17.14;52.63
77351;BME280;66420;50.246;14.320;2023-05-02T10:13:42;99902.25;;;17.52;54.15
77351;BME280;66420;50.246;14.320;2023-05-02T10:16:28;99903.34;;;17.59;53.21
77351;BME280;66420;50.246;14.320;2023-05-02T10:19:19;99907.47;;;17.53;53.03
77351;BME280;66420;50.246;14.320;2023-05-02T10:22:05;99901.25;;;17.68;53.31
77351;BME280;66420;50.246;14.320;2023-05-02T10:24:52;99902.63;;;17.87;51.86
77351;BME280;66420;50.246;14.320;2023-05-02T10:27:37;99900.09;;;17.82;52.09
77351;BME280;66420;50.246;14.320;2023-05-02T10:30:22;99911.97;;;17.82;51.34
77351;BME280;66420;50.246;14.320;2023-05-02T10:33:07;99917.50;;;17.70;50.63
77351;BME280;66420;50.246;14.320;2023-05-02T10:35:52;99916.94;;;17.64;50.30
77351;BME280;66420;50.246;14.320;2023-05-02T10:38:37;99916.91;;;17.40;49.82
77351;BME280;66420;50.246;14.320;2023-05-02T10:41:24;99920.59;;;17.56;50.67
77351;BME280;66420;50.246;14.320;2023-05-02T10:44:10;99923.84;;;17.95;50.31
77351;BME280;66420;50.246;14.320;2023-05-02T10:46:54;99928.81;;;17.65;50.00
77351;BME280;66420;50.246;14.320;2023-05-02T10:52:36;99922.91;;;17.79;50.76
77351;BME280;66420;50.246;14.320;2023-05-02T10:55:22;99918.53;;;17.90;49.89
77351;BME280;66420;50.246;14.320;2023-05-02T11:00:53;99922.41;;;18.13;47.83
77351;BME280;66420;50.246;14.320;2023-05-02T11:04:10;99926.13;;;18.05;49.95
77351;BME280;66420;50.246;14.320;2023-05-02T11:09:43;99926.59;;;17.95;49.11
77351;BME280;66420;50.246;14.320;2023-05-02T11:12:54;99923.03;;;17.58;46.74
77351;BME280;66420;50.246;14.320;2023-05-02T11:18:24;99923.03;;;17.94;48.40
77351;BME280;66420;50.246;14.320;2023-05-02T11:21:29;99921.00;;;18.19;48.28
77351;BME280;66420;50.246;14.320;2023-05-02T11:24:41;99923.69;;;18.43;48.41
77351;BME280;66420;50.246;14.320;2023-05-02T11:30:35;99922.91;;;18.71;46.04
77351;BME280;66420;50.246;14.320;2023-05-02T11:33:20;99928.22;;;18.36;45.98
77351;BME280;66420;50.246;14.320;2023-05-02T11:36:05;99926.03;;;19.13;48.25
77351;BME280;66420;50.246;14.320;2023-05-02T11:38:50;99931.41;;;19.06;45.89
77351;BME280;66420;50.246;14.320;2023-05-02T11:41:39;99927.41;;;18.75;44.54
77351;BME280;66420;50.246;14.320;2023-05-02T11:44:23;99932.13;;;18.75;46.00
77351;BME280;66420;50.246;14.320;2023-05-02T11:47:08;99930.50;;;18.46;45.56
77351;BME280;66420;50.246;14.320;2023-05-02T11:49:56;99926.22;;;18.08;46.95
77351;BME280;66420;50.246;14.320;2023-05-02T11:52:42;99933.50;;;18.13;48.09
77351;BME280;66420;50.246;14.320;2023-05-02T11:55:27;99937.06;;;18.13;48.26
77351;BME280;66420;50.246;14.320;2023-05-02T11:58:16;99943.56;;;17.93;46.80
77351;BME280;66420;50.246;14.320;2023-05-02T12:01:12;99934.13;;;17.70;47.29
77351;BME280;66420;50.246;14.320;2023-05-02T12:04:04;99936.06;;;17.94;47.44
77351;BME280;66420;50.246;14.320;2023-05-02T12:06:55;99938.38;;;17.80;47.25
77351;BME280;66420;50.246;14.320;2023-05-02T12:09:51;99946.69;;;17.80;48.27
77351;BME280;66420;50.246;14.320;2023-05-02T12:12:39;99942.13;;;18.11;45.93
77351;BME280;66420;50.246;14.320;2023-05-02T12:15:25;99948.75;;;17.95;48.34
77351;BME280;66420;50.246;14.320;2023-05-02T12:18:09;99952.00;;;17.85;48.08
77351;BME280;66420;50.246;14.320;2023-05-02T12:20:55;99954.75;;;17.85;49.01
77351;BME280;66420;50.246;14.320;2023-05-02T12:23:40;99955.22;;;17.75;48.66
77351;BME280;66420;50.246;14.320;2023-05-02T12:26:25;99962.09;;;17.56;50.62
77351;BME280;66420;50.246;14.320;2023-05-02T12:29:14;99965.38;;;17.70;49.58
77351;BME280;66420;50.246;14.320;2023-05-02T12:31:59;99961.00;;;17.82;50.61
77351;BME280;66420;50.246;14.320;2023-05-02T12:34:44;99977.56;;;17.57;50.29
77351;BME280;66420;50.246;14.320;2023-05-02T12:37:29;99975.84;;;17.53;50.31
77351;BME280;66420;50.246;14.320;2023-05-02T12:40:15;99969.28;;;17.94;51.29
77351;BME280;66420;50.246;14.320;2023-05-02T12:43:02;99971.31;;;18.21;49.44
77351;BME280;66420;50.246;14.320;2023-05-02T12:45:49;99971.47;;;18.52;48.92
77351;BME280;66420;50.246;14.320;2023-05-02T12:48:37;99975.47;;;18.15;48.63
77351;BME280;66420;50.246;14.320;2023-05-02T12:51:22;99986.66;;;18.31;49.58
77351;BME280;66420;50.246;14.320;2023-05-02T12:54:07;99971.50;;;18.40;49.07
77351;BME280;66420;50.246;14.320;2023-05-02T12:56:52;99971.09;;;18.26;49.61
77351;BME280;66420;50.246;14.320;2023-05-02T12:59:36;99990.75;;;17.97;50.66
77351;BME280;66420;50.246;14.320;2023-05-02T13:02:21;99982.13;;;17.86;49.78
77351;BME280;66420;50.246;14.320;2023-05-02T13:05:33;99988.91;;;17.77;49.45
77351;BME280;66420;50.246;14.320;2023-05-02T13:08:18;99997.22;;;17.77;49.65
77351;BME280;66420;50.246;14.320;2023-05-02T13:11:04;99990.94;;;17.55;49.66
77351;BME280;66420;50.246;14.320;2023-05-02T13:13:48;99993.97;;;17.75;49.14
77351;BME280;66420;50.246;14.320;2023-05-02T13:16:33;99999.28;;;17.80;49.05
77351;BME280;66420;50.246;14.320;2023-05-02T13:19:23;100003.19;;;17.79;48.35
77351;BME280;66420;50.246;14.320;2023-05-02T13:22:08;99997.16;;;17.52;47.51
77351;BME280;66420;50.246;14.320;2023-05-02T13:24:53;99997.59;;;17.30;50.13
77351;BME280;66420;50.246;14.320;2023-05-02T13:27:38;99994.59;;;17.35;48.19
77351;BME280;66420;50.246;14.320;2023-05-02T13:30:24;100005.50;;;17.64;49.23
77351;BME280;66420;50.246;14.320;2023-05-02T13:33:09;99996.16;;;17.69;49.82
77351;BME280;66420;50.246;14.320;2023-05-02T13:35:54;100002.31;;;17.87;48.48
77351;BME280;66420;50.246;14.320;2023-05-02T13:38:39;99999.66;;;17.33;48.54
77351;BME280;66420;50.246;14.320;2023-05-02T13:41:27;100002.91;;;17.47;48.73
77351;BME280;66420;50.246;14.320;2023-05-02T13:44:11;100003.34;;;17.82;49.70
77351;BME280;66420;50.246;14.320;2023-05-02T13:46:56;100002.75;;;17.89;49.65
77351;BME280;66420;50.246;14.320;2023-05-02T13:49:41;100004.38;;;17.78;48.39
77351;BME280;66420;50.246;14.320;2023-05-02T13:52:25;99998.13;;;18.05;47.94
77351;BME280;66420;50.246;14.320;2023-05-02T13:55:10;99991.31;;;18.14;49.11
77351;BME280;66420;50.246;14.320;2023-05-02T13:57:56;100001.00;;;18.33;48.49
77351;BME280;66420;50.246;14.320;2023-05-02T14:00:40;99997.22;;;18.01;48.33
77351;BME280;66420;50.246;14.320;2023-05-02T14:03:25;100004.53;;;17.36;49.84
77351;BME280;66420;50.246;14.320;2023-05-02T14:06:11;100005.88;;;17.63;49.64
77351;BME280;66420;50.246;14.320;2023-05-02T14:08:55;100019.38;;;17.77;48.69
77351;BME280;66420;50.246;14.320;2023-05-02T14:11:40;100018.44;;;17.73;47.82
77351;BME280;66420;50.246;14.320;2023-05-02T14:14:25;100016.13;;;17.75;47.71
77351;BME280;66420;50.246;14.320;2023-05-02T14:17:09;100012.09;;;17.72;47.14
77351;BME280;66420;50.246;14.320;2023-05-02T14:19:54;100023.38;;;17.55;48.24
77351;BME280;66420;50.246;14.320;2023-05-02T14:22:38;100015.69;;;17.73;48.90
77351;BME280;66420;50.246;14.320;2023-05-02T14:25:23;100014.22;;;17.42;48.48
77351;BME280;66420;50.246;14.320;2023-05-02T14:28:08;100022.38;;;17.26;48.59
77351;BME280;66420;50.246;14.320;2023-05-02T14:30:53;100015.94;;;17.47;48.05
77351;BME280;66420;50.246;14.320;2023-05-02T14:33:38;100029.75;;;17.35;48.47
77351;BME280;66420;50.246;14.320;2023-05-02T14:36:23;100019.25;;;17.28;48.42
77351;BME280;66420;50.246;14.320;2023-05-02T14:39:08;100022.06;;;17.40;48.33
77351;BME280;66420;50.246;14.320;2023-05-02T14:41:52;100019.50;;;17.35;48.59
77351;BME280;66420;50.246;14.320;2023-05-02T14:44:37;100017.00;;;17.54;49.02
77351;BME280;66420;50.246;14.320;2023-05-02T14:47:22;100022.59;;;17.66;47.88
77351;BME280;66420;50.246;14.320;2023-05-02T14:50:07;100025.00;;;17.92;48.26
77351;BME280;66420;50.246;14.320;2023-05-02T14:52:52;100032.16;;;17.93;48.67
77351;BME280;66420;50.246;14.320;2023-05-02T14:55:37;100033.78;;;17.37;47.33
77351;BME280;66420;50.246;14.320;2023-05-02T14:58:22;100027.00;;;17.47;48.25
77351;BME280;66420;50.246;14.320;2023-05-02T15:01:17;100031.00;;;17.25;48.50